createdAt,value
2022-12-03T00:00:12.498Z,105.43
2022-12-03T00:02:41.293Z,111.90
2022-12-03T00:05:09.268Z,103.30
2022-12-03T00:07:36.492Z,93.43
2022-12-03T00:10:05.112Z,96.53
2022-12-03T00:12:34.654Z,103.10
2022-12-03T00:15:01.802Z,93.93
2022-12-03T00:17:30.260Z,95.18
2022-12-03T00:19:57.447Z,95.72
2022-12-03T00:22:24.644Z,87.00
2022-12-03T00:24:52.155Z,90.82
2022-12-03T00:27:19.498Z,102.65
2022-12-03T00:29:46.623Z,86.40
2022-12-03T00:32:14.208Z,90.03
2022-12-03T00:34:41.375Z,88.47
2022-12-03T00:37:08.532Z,99.75
2022-12-03T00:39:35.668Z,98.45
2022-12-03T00:42:02.821Z,86.63
2022-12-03T00:44:35.122Z,88.40
2022-12-03T00:47:02.425Z,87.57
2022-12-03T00:49:29.594Z,83.22
2022-12-03T00:51:56.737Z,87.13
2022-12-03T00:54:28.471Z,92.25
2022-12-03T00:56:58.939Z,85.43
2022-12-03T00:59:26.104Z,87.90
2022-12-03T01:01:53.295Z,89.00
2022-12-03T01:04:21.446Z,91.88
2022-12-03T01:06:48.699Z,81.57
2022-12-03T01:09:15.828Z,93.50
2022-12-03T01:11:43.074Z,82.10
2022-12-03T01:14:12.791Z,84.53
2022-12-03T01:16:39.998Z,86.10
2022-12-03T01:19:07.623Z,87.20
2022-12-03T01:21:35.106Z,85.65
2022-12-03T01:24:02.418Z,92.65
2022-12-03T01:26:29.570Z,84.90
2022-12-03T01:28:56.743Z,90.60
2022-12-03T01:31:42.721Z,94.93
2022-12-03T01:34:09.981Z,86.65
2022-12-03T01:36:40.785Z,81.65
2022-12-03T01:39:07.955Z,93.07
2022-12-03T01:41:35.415Z,86.53
2022-12-03T01:44:18.567Z,82.85
2022-12-03T01:46:45.788Z,92.13
2022-12-03T01:49:27.125Z,84.85
2022-12-03T01:52:12.969Z,82.10
2022-12-03T01:54:46.150Z,91.30
2022-12-03T01:57:26.420Z,90.45
2022-12-03T01:59:54.369Z,91.13
2022-12-03T02:02:27.480Z,91.38
2022-12-03T02:04:55.207Z,92.22
2022-12-03T02:07:32.798Z,83.40
2022-12-03T02:10:02.237Z,88.38
2022-12-03T02:12:36.902Z,84.05
2022-12-03T02:15:05.939Z,91.40
2022-12-03T02:17:33.178Z,87.97
2022-12-03T02:20:01.710Z,82.57
2022-12-03T02:22:38.079Z,94.78
2022-12-03T02:25:18.394Z,80.68
2022-12-03T02:27:45.703Z,95.28
2022-12-03T02:30:14.362Z,94.82
2022-12-03T02:32:41.529Z,82.30
2022-12-03T02:35:21.169Z,80.35
2022-12-03T02:38:01.436Z,94.88
2022-12-03T02:40:31.086Z,82.22
2022-12-03T02:43:00.176Z,89.07
2022-12-03T02:45:33.987Z,83.88
2022-12-03T02:48:17.487Z,82.28
2022-12-03T02:50:51.611Z,93.28
2022-12-03T02:53:44.507Z,93.95
2022-12-03T02:56:14.812Z,89.53
2022-12-03T02:58:42.110Z,76.50
2022-12-03T03:01:09.377Z,83.65
2022-12-03T03:03:37.081Z,92.55
2022-12-03T03:06:04.562Z,82.05
2022-12-03T03:08:31.754Z,93.25
2022-12-03T03:11:00.120Z,89.80
2022-12-03T03:13:27.474Z,87.00
2022-12-03T03:15:54.663Z,90.72
2022-12-03T03:18:21.894Z,83.07
2022-12-03T03:20:49.002Z,88.03
2022-12-03T03:23:19.016Z,89.30
2022-12-03T03:25:51.759Z,93.05
2022-12-03T03:28:20.354Z,86.55
2022-12-03T03:30:47.474Z,89.90
2022-12-03T03:33:14.656Z,79.75
2022-12-03T03:35:42.265Z,99.88
2022-12-03T03:38:09.427Z,89.78
2022-12-03T03:40:37.501Z,89.65
2022-12-03T03:43:04.721Z,83.00
2022-12-03T03:45:31.912Z,99.43
2022-12-03T03:47:59.209Z,84.75
2022-12-03T03:50:27.891Z,87.53
2022-12-03T03:52:55.211Z,95.70
2022-12-03T03:55:22.359Z,87.68
2022-12-03T03:57:49.608Z,97.05
2022-12-03T04:00:17.099Z,86.55
2022-12-03T04:02:44.567Z,86.50
2022-12-03T04:05:19.573Z,87.43
2022-12-03T04:07:46.856Z,100.72
2022-12-03T04:10:33.181Z,90.55
2022-12-03T04:13:00.532Z,87.85
2022-12-03T04:15:27.896Z,96.03
2022-12-03T04:18:13.883Z,104.22
2022-12-03T04:20:41.712Z,93.05
2022-12-03T04:23:08.997Z,94.95
2022-12-03T04:26:11.765Z,87.13
2022-12-03T04:28:50.970Z,92.05
2022-12-03T04:31:36.687Z,91.50
2022-12-03T04:34:22.661Z,92.80
2022-12-03T04:36:49.923Z,86.80
2022-12-03T04:39:17.108Z,85.90
2022-12-03T04:41:44.304Z,93.78
2022-12-03T04:44:30.362Z,93.82
2022-12-03T04:46:57.839Z,94.05
2022-12-03T04:49:25.012Z,96.47
2022-12-03T04:51:52.135Z,102.43
2022-12-03T04:54:19.330Z,91.07
2022-12-03T04:56:47.633Z,91.07
2022-12-03T04:59:16.509Z,89.88
2022-12-03T05:01:44.690Z,89.95
2022-12-03T05:04:13.169Z,87.60
2022-12-03T05:06:41.076Z,86.57
2022-12-03T05:09:08.476Z,101.07
2022-12-03T05:11:35.649Z,91.95
2022-12-03T05:14:02.873Z,98.93
2022-12-03T05:16:30.258Z,87.00
2022-12-03T05:18:57.520Z,82.93
2022-12-03T05:21:24.691Z,91.65
2022-12-03T05:23:51.874Z,84.15
2022-12-03T05:26:19.064Z,92.00
2022-12-03T05:28:46.299Z,91.18
2022-12-03T05:31:13.483Z,88.70
2022-12-03T05:33:44.197Z,90.13
2022-12-03T05:36:11.793Z,91.35
2022-12-03T05:38:39.199Z,87.72
2022-12-03T05:41:26.688Z,90.68
2022-12-03T05:43:56.230Z,81.68
2022-12-03T05:46:23.402Z,91.03
2022-12-03T05:48:50.620Z,86.10
2022-12-03T05:51:17.787Z,89.88
2022-12-03T05:53:44.950Z,89.45
2022-12-03T05:56:12.431Z,92.10
2022-12-03T05:58:39.525Z,99.35
2022-12-03T06:01:08.146Z,91.30
2022-12-03T06:03:35.405Z,89.55
2022-12-03T06:06:02.728Z,89.10
2022-12-03T06:08:29.910Z,91.40
2022-12-03T06:10:57.008Z,87.88
2022-12-03T06:13:24.191Z,103.20
2022-12-03T06:15:51.386Z,105.93
2022-12-03T06:18:18.783Z,108.70
2022-12-03T06:20:45.961Z,105.47
2022-12-03T06:23:13.082Z,112.95
2022-12-03T06:25:40.139Z,108.57
2022-12-03T06:28:07.441Z,104.38
2022-12-03T06:30:35.844Z,99.53
2022-12-03T06:33:03.126Z,100.50
2022-12-03T06:35:30.278Z,117.15
2022-12-03T06:37:57.491Z,115.97
2022-12-03T06:40:25.142Z,118.30
2022-12-03T06:42:52.594Z,110.57
2022-12-03T06:45:19.689Z,106.78
2022-12-03T06:47:46.841Z,96.43
2022-12-03T06:50:14.246Z,102.05
2022-12-03T06:52:41.347Z,91.35
2022-12-03T06:55:09.451Z,96.07
2022-12-03T06:57:36.576Z,93.15
2022-12-03T07:00:06.285Z,95.22
2022-12-03T07:02:33.557Z,95.45
2022-12-03T07:05:00.830Z,101.90
2022-12-03T07:07:27.992Z,96.15
2022-12-03T07:09:55.881Z,105.72
2022-12-03T07:12:23.093Z,94.22
2022-12-03T07:14:50.198Z,90.03
2022-12-03T07:17:17.349Z,99.65
2022-12-03T07:19:44.534Z,102.63
2022-12-03T07:22:11.778Z,112.80
2022-12-03T07:24:38.988Z,100.43
2022-12-03T07:27:06.312Z,102.68
2022-12-03T07:29:33.444Z,103.90
2022-12-03T07:32:00.668Z,99.05
2022-12-03T07:34:28.567Z,97.22
2022-12-03T07:36:55.781Z,95.40
2022-12-03T07:39:23.018Z,92.72
2022-12-03T07:41:50.244Z,98.63
2022-12-03T07:44:19.669Z,105.00
2022-12-03T07:46:46.948Z,108.32
2022-12-03T07:49:14.264Z,96.07
2022-12-03T07:51:42.911Z,113.60
2022-12-03T07:54:10.199Z,113.68
2022-12-03T07:56:37.418Z,115.90
2022-12-03T07:59:04.680Z,105.97
2022-12-03T08:01:31.945Z,101.95
2022-12-03T08:03:59.434Z,110.07
2022-12-03T08:06:27.014Z,93.00
2022-12-03T08:08:54.202Z,106.82
2022-12-03T08:11:21.428Z,95.47
2022-12-03T08:13:48.669Z,101.65
2022-12-03T08:16:20.672Z,123.05
2022-12-03T08:18:48.636Z,97.78
2022-12-03T08:21:18.562Z,116.43
2022-12-03T08:23:46.912Z,91.97
2022-12-03T08:26:20.218Z,97.35
2022-12-03T08:28:47.443Z,104.07
2022-12-03T08:31:32.409Z,105.70
2022-12-03T08:34:31.836Z,98.15
2022-12-03T08:37:02.258Z,107.32
2022-12-03T08:39:37.770Z,107.07
2022-12-03T08:42:23.348Z,97.43
2022-12-03T08:44:50.580Z,95.30
2022-12-03T08:47:22.569Z,96.18
2022-12-03T08:50:14.162Z,107.80
2022-12-03T08:52:41.295Z,113.20
2022-12-03T08:55:33.660Z,105.80
2022-12-03T08:58:00.944Z,107.35
2022-12-03T09:00:28.144Z,96.68
2022-12-03T09:02:58.488Z,116.53
2022-12-03T09:05:32.398Z,107.85
2022-12-03T09:07:59.965Z,101.55
2022-12-03T09:10:27.261Z,103.75
2022-12-03T09:12:54.437Z,102.25
2022-12-03T09:15:21.631Z,115.50
2022-12-03T09:17:50.303Z,107.95
2022-12-03T09:20:17.642Z,104.20
2022-12-03T09:22:44.995Z,116.93
2022-12-03T09:25:12.119Z,116.35
2022-12-03T09:27:39.360Z,119.18
2022-12-03T09:30:07.469Z,120.25
2022-12-03T09:32:34.761Z,114.05
2022-12-03T09:35:03.261Z,114.97
2022-12-03T09:37:30.478Z,109.32
2022-12-03T09:39:57.603Z,220.38
2022-12-03T09:42:25.598Z,285.73
2022-12-03T09:44:53.389Z,205.75
2022-12-03T09:47:20.708Z,277.13
2022-12-03T09:49:47.863Z,238.30
2022-12-03T09:52:23.234Z,160.05
2022-12-03T09:54:52.759Z,121.32
2022-12-03T09:57:20.229Z,121.70
2022-12-03T09:59:47.594Z,104.13
2022-12-03T10:02:22.441Z,120.95
2022-12-03T10:04:49.856Z,119.15
2022-12-03T10:07:17.212Z,132.27
2022-12-03T10:09:44.374Z,120.32
2022-12-03T10:12:12.414Z,125.13
2022-12-03T10:14:41.282Z,131.00
2022-12-03T10:17:10.647Z,132.38
2022-12-03T10:19:39.550Z,116.97
2022-12-03T10:22:06.717Z,139.77
2022-12-03T10:24:35.371Z,137.48
2022-12-03T10:27:05.747Z,118.22
2022-12-03T10:29:35.302Z,129.82
2022-12-03T10:32:07.172Z,123.65
2022-12-03T10:34:36.914Z,123.82
2022-12-03T10:37:24.041Z,141.00
2022-12-03T10:40:08.385Z,141.13
2022-12-03T10:42:38.259Z,133.82
2022-12-03T10:45:18.492Z,137.20
2022-12-03T10:48:06.663Z,135.65
2022-12-03T10:50:34.708Z,137.30
2022-12-03T10:53:01.866Z,141.85
2022-12-03T10:55:37.561Z,161.80
2022-12-03T10:58:04.745Z,165.50
2022-12-03T11:00:31.908Z,128.70
2022-12-03T11:02:59.069Z,145.23
2022-12-03T11:05:27.419Z,144.82
2022-12-03T11:07:54.810Z,146.25
2022-12-03T11:10:27.295Z,144.55
2022-12-03T11:13:33.533Z,140.45
2022-12-03T11:16:02.231Z,146.10
2022-12-03T11:18:38.519Z,145.95
2022-12-03T11:21:06.644Z,138.63
2022-12-03T11:23:45.973Z,149.13
2022-12-03T11:26:28.856Z,139.02
2022-12-03T11:28:57.579Z,156.57
2022-12-03T11:31:41.219Z,148.75
2022-12-03T11:34:23.183Z,141.13
2022-12-03T11:37:12.440Z,146.43
2022-12-03T11:39:52.078Z,133.90
2022-12-03T11:42:28.479Z,143.15
2022-12-03T11:45:04.556Z,155.40
2022-12-03T11:47:34.329Z,147.27
2022-12-03T11:50:01.640Z,147.57
2022-12-03T11:52:39.373Z,146.65
2022-12-03T11:55:30.208Z,148.80
2022-12-03T11:58:18.717Z,137.82
2022-12-03T12:00:56.984Z,155.70
2022-12-03T12:03:32.901Z,143.82
2022-12-03T12:06:20.584Z,156.13
2022-12-03T12:08:51.460Z,153.05
2022-12-03T12:11:29.999Z,147.20
2022-12-03T12:14:08.231Z,163.05
2022-12-03T12:16:55.209Z,151.95
2022-12-03T12:19:42.527Z,142.35
2022-12-03T12:22:24.112Z,144.52
2022-12-03T12:24:56.679Z,143.95
2022-12-03T12:27:45.215Z,141.70
2022-12-03T12:30:27.671Z,144.25
2022-12-03T12:33:19.669Z,148.10
2022-12-03T12:35:46.915Z,145.18
2022-12-03T12:38:16.941Z,146.40
2022-12-03T12:40:46.920Z,136.80
2022-12-03T12:43:26.324Z,155.43
2022-12-03T12:45:56.106Z,152.07
2022-12-03T12:48:34.294Z,149.60
2022-12-03T12:51:20.434Z,151.82
2022-12-03T12:53:47.879Z,146.32
2022-12-03T12:56:32.702Z,149.43
2022-12-03T12:59:11.271Z,147.10
2022-12-03T13:01:38.959Z,150.13
2022-12-03T13:04:19.332Z,137.25
2022-12-03T13:06:47.878Z,149.00
2022-12-03T13:09:19.565Z,140.90
2022-12-03T13:11:51.816Z,148.25
2022-12-03T13:14:26.743Z,146.88
2022-12-03T13:16:55.488Z,135.60
2022-12-03T13:19:30.456Z,146.15
2022-12-03T13:22:01.719Z,135.15
2022-12-03T13:24:47.757Z,145.38
2022-12-03T13:27:19.769Z,151.60
2022-12-03T13:30:01.350Z,135.18
2022-12-03T13:32:47.586Z,147.40
2022-12-03T13:36:12.241Z,140.52
2022-12-03T13:38:54.302Z,154.18
2022-12-03T13:41:40.255Z,149.63
2022-12-03T13:44:16.886Z,149.70
2022-12-03T13:46:49.406Z,139.48
2022-12-03T13:49:21.602Z,139.82
2022-12-03T13:51:49.609Z,137.75
2022-12-03T13:54:23.060Z,153.73
2022-12-03T13:56:50.611Z,134.90
2022-12-03T13:59:25.967Z,133.02
2022-12-03T14:01:53.522Z,133.20
2022-12-03T14:04:45.526Z,133.38
2022-12-03T14:07:15.362Z,140.68
2022-12-03T14:09:49.032Z,120.97
2022-12-03T14:15:23.378Z,124.03
2022-12-03T14:19:00.121Z,128.52
2022-12-03T14:21:36.818Z,126.40
2022-12-03T14:24:07.153Z,126.85
2022-12-03T14:26:42.122Z,132.18
2022-12-03T14:29:17.701Z,122.75
2022-12-03T14:31:47.340Z,139.25
2022-12-03T14:34:17.074Z,137.35
2022-12-03T14:36:50.210Z,139.77
2022-12-03T14:39:19.098Z,144.38
2022-12-03T14:42:05.023Z,147.60
2022-12-03T14:44:35.241Z,140.93
2022-12-03T14:47:06.413Z,137.77
2022-12-03T14:49:56.226Z,126.80
2022-12-03T14:55:38.802Z,159.25
2022-12-03T14:58:13.442Z,143.82
2022-12-03T15:00:46.235Z,194.35
2022-12-03T15:03:23.616Z,150.32
2022-12-03T15:05:56.464Z,150.65
2022-12-03T15:08:35.181Z,148.70
2022-12-03T15:11:09.258Z,159.40
2022-12-03T15:14:10.752Z,153.35
2022-12-03T15:16:37.998Z,153.32
2022-12-03T15:19:05.209Z,150.50
2022-12-03T15:21:35.089Z,164.15
2022-12-03T15:24:04.672Z,160.88
2022-12-03T15:26:31.772Z,163.38
2022-12-03T15:28:59.008Z,156.77
2022-12-03T15:31:26.364Z,163.85
2022-12-03T15:33:53.642Z,163.00
2022-12-03T15:36:20.840Z,170.70
2022-12-03T15:38:48.429Z,174.85
2022-12-03T15:41:21.697Z,163.35
2022-12-03T15:43:49.961Z,157.10
2022-12-03T15:46:19.917Z,175.02
2022-12-03T15:48:47.609Z,164.15
2022-12-03T15:51:14.850Z,171.73
2022-12-03T15:53:42.075Z,169.13
2022-12-03T15:56:09.570Z,171.75
2022-12-03T15:58:36.844Z,169.65
2022-12-03T16:01:05.549Z,159.55
2022-12-03T16:03:36.576Z,159.30
2022-12-03T16:06:03.782Z,161.75
2022-12-03T16:08:31.042Z,166.27
2022-12-03T16:10:58.199Z,180.63
2022-12-03T16:13:25.454Z,166.48
2022-12-03T16:15:53.707Z,179.77
2022-12-03T16:18:21.015Z,178.10
2022-12-03T16:20:50.958Z,172.13
2022-12-03T16:23:18.174Z,164.73
2022-12-03T16:25:45.398Z,172.38
2022-12-03T16:28:12.800Z,169.27
2022-12-03T16:30:42.843Z,174.80
2022-12-03T16:33:13.165Z,188.90
2022-12-03T16:35:40.517Z,175.30
2022-12-03T16:38:12.669Z,190.18
2022-12-03T16:40:39.852Z,196.75
2022-12-03T16:43:08.477Z,188.88
2022-12-03T16:45:54.657Z,203.73
2022-12-03T16:48:22.627Z,190.70
2022-12-03T16:50:49.862Z,191.55
2022-12-03T16:53:16.962Z,196.38
2022-12-03T16:55:44.094Z,211.02
2022-12-03T16:58:14.444Z,197.23
2022-12-03T17:00:41.721Z,192.15
2022-12-03T17:03:08.986Z,184.60
2022-12-03T17:05:36.249Z,195.55
2022-12-03T17:08:12.998Z,202.55
2022-12-03T17:10:44.131Z,182.45
2022-12-03T17:13:11.426Z,197.82
2022-12-03T17:15:39.349Z,182.85
2022-12-03T17:18:07.487Z,194.07
2022-12-03T17:20:35.704Z,183.60
2022-12-03T17:23:02.954Z,178.45
2022-12-03T17:25:30.424Z,186.63
2022-12-03T17:28:03.980Z,191.95
2022-12-03T17:30:31.209Z,176.97
2022-12-03T17:32:58.427Z,200.32
2022-12-03T17:35:26.774Z,200.43
2022-12-03T17:37:54.372Z,179.55
2022-12-03T17:40:21.544Z,187.98
2022-12-03T17:42:48.846Z,192.65
2022-12-03T17:45:16.179Z,179.57
2022-12-03T17:47:43.372Z,176.13
2022-12-03T17:50:10.866Z,198.15
2022-12-03T17:52:38.137Z,187.20
2022-12-03T17:55:18.025Z,193.70
2022-12-03T17:57:48.703Z,180.43
2022-12-03T18:00:16.067Z,190.30
2022-12-03T18:02:43.460Z,168.93
2022-12-03T18:05:10.765Z,195.82
2022-12-03T18:07:38.016Z,197.30
2022-12-03T18:10:06.108Z,182.80
2022-12-03T18:12:33.510Z,186.88
2022-12-03T18:15:00.683Z,176.98
2022-12-03T18:17:27.962Z,172.07
2022-12-03T18:19:55.409Z,176.88
2022-12-03T18:22:22.723Z,175.70
2022-12-03T18:24:51.964Z,183.27
2022-12-03T18:27:20.875Z,192.45
2022-12-03T18:29:48.040Z,181.13
2022-12-03T18:32:28.208Z,177.23
2022-12-03T18:34:56.925Z,191.13
2022-12-03T18:37:28.958Z,184.15
2022-12-03T18:39:56.805Z,179.50
2022-12-03T18:42:27.513Z,171.85
2022-12-03T18:44:55.890Z,168.82
2022-12-03T18:47:26.879Z,165.65
2022-12-03T18:49:54.907Z,178.27
2022-12-03T18:52:23.159Z,188.80
2022-12-03T18:54:50.709Z,183.20
2022-12-03T18:57:18.101Z,178.23
2022-12-03T18:59:45.240Z,181.85
2022-12-03T19:02:38.475Z,192.43
2022-12-03T19:05:04.503Z,194.65
2022-12-03T19:07:31.779Z,179.32
2022-12-03T19:09:59.028Z,169.60
2022-12-03T19:12:26.253Z,183.07
2022-12-03T19:14:56.495Z,195.00
2022-12-03T19:17:23.663Z,200.02
2022-12-03T19:19:50.812Z,202.80
2022-12-03T19:22:18.073Z,195.82
2022-12-03T19:24:45.144Z,190.52
2022-12-03T19:27:12.244Z,207.10
2022-12-03T19:29:43.007Z,197.43
2022-12-03T19:32:19.742Z,192.57
2022-12-03T19:34:46.982Z,203.27
2022-12-03T19:37:14.269Z,197.93
2022-12-03T19:39:42.106Z,196.00
2022-12-03T19:42:09.507Z,198.23
2022-12-03T19:44:36.702Z,212.80
2022-12-03T19:47:03.895Z,195.63
2022-12-03T19:49:31.101Z,186.48
2022-12-03T19:51:58.262Z,204.63
2022-12-03T19:54:25.444Z,194.60
2022-12-03T19:56:52.737Z,179.43
2022-12-03T19:59:19.878Z,184.95
2022-12-03T20:01:54.515Z,196.27
2022-12-03T20:04:21.737Z,187.50
2022-12-03T20:06:52.823Z,183.38
2022-12-03T20:09:21.466Z,194.57
2022-12-03T20:12:01.380Z,180.98
2022-12-03T20:14:34.619Z,183.90
2022-12-03T20:17:05.917Z,175.07
2022-12-03T20:19:37.179Z,181.77
2022-12-03T20:22:04.323Z,188.95
2022-12-03T20:24:31.544Z,175.55
2022-12-03T20:26:58.691Z,171.95
2022-12-03T20:29:25.825Z,185.98
2022-12-03T20:31:53.184Z,178.45
2022-12-03T20:34:26.589Z,175.07
2022-12-03T20:36:55.754Z,167.10
2022-12-03T20:39:23.649Z,177.50
2022-12-03T20:42:11.385Z,183.25
2022-12-03T20:44:41.829Z,184.02
2022-12-03T20:47:09.082Z,190.38
2022-12-03T20:49:36.362Z,174.13
2022-12-03T20:52:04.828Z,179.68
2022-12-03T20:54:39.016Z,195.18
2022-12-03T20:57:09.737Z,209.30
2022-12-03T20:59:45.918Z,184.48
2022-12-03T21:02:13.150Z,190.75
2022-12-03T21:04:40.495Z,200.57
2022-12-03T21:07:10.736Z,185.07
2022-12-03T21:09:37.968Z,202.63
2022-12-03T21:12:05.168Z,190.82
2022-12-03T21:14:32.592Z,198.77
2022-12-03T21:17:08.482Z,196.15
2022-12-03T21:19:36.247Z,191.25
2022-12-03T21:22:03.334Z,196.32
2022-12-03T21:24:30.506Z,205.35
2022-12-03T21:26:58.962Z,219.88
2022-12-03T21:29:26.167Z,205.52
2022-12-03T21:31:53.298Z,203.52
2022-12-03T21:34:20.535Z,197.38
2022-12-03T21:36:47.749Z,202.00
2022-12-03T21:39:14.983Z,195.63
2022-12-03T21:42:33.676Z,204.32
2022-12-03T21:44:29.343Z,191.25
2022-12-03T21:47:09.265Z,189.32
2022-12-03T21:49:40.193Z,188.98
2022-12-03T21:52:07.363Z,194.30
2022-12-03T21:54:34.501Z,187.40
2022-12-03T21:57:01.739Z,185.77
2022-12-03T21:59:28.967Z,196.10
2022-12-03T22:01:56.865Z,180.63
2022-12-03T22:04:28.957Z,197.65
2022-12-03T22:07:23.684Z,196.35
2022-12-03T22:10:25.835Z,186.23
2022-12-03T22:13:28.391Z,188.88
2022-12-03T22:16:21.733Z,189.90
2022-12-03T22:18:49.940Z,183.93
2022-12-03T22:21:19.047Z,176.50
2022-12-03T22:23:46.344Z,177.70
2022-12-03T22:26:16.270Z,202.63
2022-12-03T22:28:47.388Z,188.65
2022-12-03T22:31:15.428Z,166.57
2022-12-03T22:33:43.457Z,175.35
2022-12-03T22:36:16.422Z,184.65
2022-12-03T22:38:47.645Z,179.75
2022-12-03T22:41:15.146Z,185.68
2022-12-03T22:43:42.878Z,178.73
2022-12-03T22:46:13.543Z,167.88
2022-12-03T22:48:41.885Z,189.00
2022-12-03T22:51:25.232Z,177.02
2022-12-03T22:53:56.900Z,186.52
2022-12-03T22:56:24.637Z,194.25
2022-12-03T22:58:53.662Z,176.05
2022-12-03T23:01:32.040Z,170.68
2022-12-03T23:04:00.822Z,183.20
2022-12-03T23:06:28.494Z,182.73
2022-12-03T23:08:55.883Z,179.57
2022-12-03T23:11:23.007Z,177.55
2022-12-03T23:13:50.200Z,181.38
2022-12-03T23:16:26.917Z,176.93
2022-12-03T23:18:55.003Z,182.95
2022-12-03T23:21:29.902Z,178.82
2022-12-03T23:24:02.112Z,177.88
2022-12-03T23:26:29.309Z,178.07
2022-12-03T23:28:56.675Z,180.50
2022-12-03T23:31:29.594Z,182.13
2022-12-03T23:33:57.310Z,187.93
2022-12-03T23:36:27.336Z,175.80
2022-12-03T23:38:54.680Z,182.02
2022-12-03T23:41:22.895Z,180.30
2022-12-03T23:43:50.212Z,167.65
2022-12-03T23:46:23.048Z,177.95
2022-12-03T23:48:50.793Z,172.57
2022-12-03T23:51:24.018Z,175.82
2022-12-03T23:53:52.943Z,181.30
2022-12-03T23:56:23.279Z,170.52
2022-12-03T23:58:50.787Z,166.88
